createdAt,value
2022-10-17T00:00:59.408Z,2.78
2022-10-17T00:03:26.437Z,3.78
2022-10-17T00:05:53.437Z,4.60
2022-10-17T00:08:20.837Z,3.25
2022-10-17T00:10:58.875Z,3.65
2022-10-17T00:13:26.438Z,4.22
2022-10-17T00:15:54.170Z,5.03
2022-10-17T00:18:21.384Z,3.90
2022-10-17T00:20:48.351Z,4.35
2022-10-17T00:23:15.343Z,5.35
2022-10-17T00:25:42.742Z,4.28
2022-10-17T00:28:14.055Z,4.18
2022-10-17T00:30:41.065Z,3.65
2022-10-17T00:33:08.021Z,4.60
2022-10-17T00:35:35.077Z,3.63
2022-10-17T00:38:02.089Z,3.15
2022-10-17T00:40:29.082Z,4.63
2022-10-17T00:42:56.199Z,4.97
2022-10-17T00:45:28.459Z,5.30
2022-10-17T00:48:08.609Z,4.55
2022-10-17T00:50:38.686Z,5.40
2022-10-17T00:53:07.970Z,4.63
2022-10-17T00:55:44.420Z,4.15
2022-10-17T00:58:11.647Z,3.63
2022-10-17T01:00:38.689Z,4.47
2022-10-17T01:03:05.664Z,6.47
2022-10-17T01:05:33.031Z,5.73
2022-10-17T01:08:00.688Z,6.43
2022-10-17T01:10:49.119Z,4.13
2022-10-17T01:13:58.059Z,4.53
2022-10-17T01:17:21.290Z,3.73
2022-10-17T01:20:26.499Z,4.22
2022-10-17T01:22:58.508Z,4.05
2022-10-17T01:25:48.605Z,4.38
2022-10-17T01:28:56.674Z,5.43
2022-10-17T01:31:32.166Z,5.22
2022-10-17T01:34:21.269Z,5.35
2022-10-17T01:36:58.038Z,4.95
2022-10-17T01:39:43.941Z,4.20
2022-10-17T01:42:37.711Z,5.63
2022-10-17T01:45:16.486Z,6.07
2022-10-17T01:47:46.244Z,4.93
2022-10-17T01:50:28.278Z,4.53
2022-10-17T01:53:14.370Z,6.15
2022-10-17T01:55:46.319Z,7.17
2022-10-17T01:58:21.212Z,4.82
2022-10-17T02:00:49.739Z,6.78
2022-10-17T02:03:21.113Z,6.82
2022-10-17T02:05:48.823Z,5.57
2022-10-17T02:08:30.172Z,6.22
2022-10-17T02:11:07.004Z,6.20
2022-10-17T02:14:01.488Z,4.63
2022-10-17T02:17:00.886Z,5.30
2022-10-17T02:19:50.145Z,5.68
2022-10-17T02:22:34.813Z,4.82
2022-10-17T02:25:19.599Z,6.03
2022-10-17T02:28:25.580Z,6.32
2022-10-17T02:31:00.723Z,7.18
2022-10-17T02:33:34.597Z,5.30
2022-10-17T02:36:20.766Z,4.57
2022-10-17T02:38:50.823Z,6.68
2022-10-17T02:41:19.676Z,6.30
2022-10-17T02:43:50.033Z,5.20
2022-10-17T02:46:21.901Z,6.28
2022-10-17T02:49:01.040Z,4.43
2022-10-17T02:51:44.104Z,6.65
2022-10-17T02:54:28.440Z,4.75
2022-10-17T02:57:03.611Z,4.70
2022-10-17T03:02:07.235Z,4.95
2022-10-17T03:04:34.790Z,5.22
2022-10-17T03:07:01.792Z,4.45
2022-10-17T03:09:28.755Z,5.20
2022-10-17T03:11:55.797Z,4.72
2022-10-17T03:14:22.734Z,5.32
2022-10-17T03:16:49.718Z,4.47
2022-10-17T03:19:17.719Z,5.93
2022-10-17T03:21:44.652Z,5.38
2022-10-17T03:24:11.725Z,4.67
2022-10-17T03:26:38.785Z,5.95
2022-10-17T03:29:05.834Z,7.10
2022-10-17T03:31:32.879Z,4.47
2022-10-17T03:34:01.588Z,5.78
2022-10-17T03:36:28.687Z,3.65
2022-10-17T03:38:55.931Z,4.53
2022-10-17T03:41:22.968Z,6.25
2022-10-17T03:43:49.973Z,5.10
2022-10-17T03:48:44.831Z,5.63
2022-10-17T03:51:12.249Z,6.03
2022-10-17T03:53:39.278Z,5.82
2022-10-17T03:56:17.714Z,4.95
2022-10-17T03:58:45.331Z,5.67
2022-10-17T04:01:16.474Z,5.03
2022-10-17T04:03:44.414Z,4.30
2022-10-17T04:06:12.920Z,4.47
2022-10-17T04:08:40.687Z,4.90
2022-10-17T04:11:09.627Z,5.72
2022-10-17T04:13:36.979Z,6.67
2022-10-17T04:16:12.371Z,7.53
2022-10-17T04:18:39.307Z,7.20
2022-10-17T04:21:08.034Z,4.43
2022-10-17T04:23:35.709Z,5.68
2022-10-17T04:26:04.313Z,4.60
2022-10-17T04:28:32.704Z,5.65
2022-10-17T04:31:11.664Z,5.70
2022-10-17T04:33:38.965Z,5.07
2022-10-17T04:36:12.464Z,4.43
2022-10-17T04:38:39.915Z,5.75
2022-10-17T04:41:12.340Z,4.72
2022-10-17T04:43:39.980Z,4.60
2022-10-17T04:46:14.116Z,5.53
2022-10-17T04:48:41.443Z,4.03
2022-10-17T04:51:18.747Z,4.47
2022-10-17T04:53:47.656Z,4.15
2022-10-17T04:56:20.956Z,4.80
2022-10-17T04:58:49.063Z,5.40
2022-10-17T05:01:20.488Z,5.47
2022-10-17T05:03:48.183Z,5.53
2022-10-17T05:06:24.776Z,5.00
2022-10-17T05:08:51.950Z,4.85
2022-10-17T05:11:25.962Z,4.80
2022-10-17T05:13:58.596Z,5.10
2022-10-17T05:16:26.925Z,4.75
2022-10-17T05:18:56.735Z,5.28
2022-10-17T05:21:26.008Z,6.33
2022-10-17T05:23:53.912Z,5.05
2022-10-17T05:26:22.128Z,6.47
2022-10-17T05:28:49.190Z,5.07
2022-10-17T05:31:16.270Z,4.63
2022-10-17T05:33:43.474Z,5.10
2022-10-17T05:36:10.796Z,5.05
2022-10-17T05:38:37.809Z,5.70
2022-10-17T05:41:06.358Z,5.57
2022-10-17T05:43:34.738Z,4.10
2022-10-17T05:46:06.677Z,6.40
2022-10-17T05:48:34.630Z,7.43
2022-10-17T05:51:04.958Z,3.97
2022-10-17T05:53:34.300Z,2.03
2022-10-17T05:56:04.369Z,2.67
2022-10-17T05:58:49.183Z,2.70
2022-10-17T06:01:17.253Z,3.60
2022-10-17T06:03:44.232Z,1.60
2022-10-17T06:06:14.296Z,3.25
2022-10-17T06:08:41.795Z,3.42
2022-10-17T06:11:10.250Z,1.60
2022-10-17T06:13:38.982Z,2.50
2022-10-17T06:16:06.964Z,2.08
2022-10-17T06:18:34.312Z,2.10
2022-10-17T06:21:07.113Z,3.30
2022-10-17T06:23:34.221Z,2.07
2022-10-17T06:26:03.493Z,2.10
2022-10-17T06:28:30.859Z,4.25
2022-10-17T06:30:58.354Z,2.57
2022-10-17T06:33:25.402Z,3.47
2022-10-17T06:35:57.029Z,1.80
2022-10-17T06:38:24.503Z,3.03
2022-10-17T06:40:51.944Z,2.60
2022-10-17T06:43:18.895Z,1.40
2022-10-17T06:45:48.996Z,2.33
2022-10-17T06:48:15.979Z,1.52
2022-10-17T06:50:43.021Z,2.05
2022-10-17T06:53:10.323Z,2.78
2022-10-17T06:55:37.338Z,2.15
2022-10-17T06:58:04.416Z,2.25
2022-10-17T07:00:31.477Z,3.50
2022-10-17T07:02:58.482Z,2.35
2022-10-17T07:05:25.528Z,2.20
2022-10-17T07:07:52.484Z,2.60
2022-10-17T07:10:19.693Z,4.70
2022-10-17T07:12:46.740Z,2.92
2022-10-17T07:15:13.745Z,2.90
2022-10-17T07:17:40.662Z,3.05
2022-10-17T07:20:08.666Z,1.63
2022-10-17T07:22:35.636Z,2.08
2022-10-17T07:25:02.634Z,2.50
2022-10-17T07:27:29.903Z,1.70
2022-10-17T07:29:57.144Z,2.10
2022-10-17T07:32:24.308Z,1.58
2022-10-17T07:34:51.468Z,5.95
2022-10-17T07:37:18.479Z,3.65
2022-10-17T07:39:45.387Z,3.97
2022-10-17T07:42:12.473Z,2.75
2022-10-17T07:44:39.407Z,3.90
2022-10-17T07:47:06.475Z,1.20
2022-10-17T07:49:33.417Z,1.33
2022-10-17T07:52:00.398Z,1.52
2022-10-17T07:54:27.351Z,1.77
2022-10-17T07:56:54.351Z,2.53
2022-10-17T07:59:22.380Z,2.65
2022-10-17T08:01:49.417Z,2.85
2022-10-17T08:04:17.058Z,6.63
2022-10-17T08:06:44.126Z,1.50
2022-10-17T08:09:11.078Z,1.15
2022-10-17T08:11:38.251Z,2.47
2022-10-17T08:14:05.366Z,1.55
2022-10-17T08:16:32.362Z,2.40
2022-10-17T08:18:59.451Z,2.80
2022-10-17T08:21:26.625Z,1.08
2022-10-17T08:23:54.208Z,1.00
2022-10-17T08:26:21.451Z,1.37
2022-10-17T08:28:49.025Z,1.92
2022-10-17T08:31:19.377Z,1.40
2022-10-17T08:33:48.199Z,1.50
2022-10-17T08:36:18.326Z,1.30
2022-10-17T08:38:50.327Z,1.57
2022-10-17T08:41:44.461Z,1.55
2022-10-17T08:44:22.965Z,1.15
2022-10-17T08:46:58.928Z,2.90
2022-10-17T08:49:48.500Z,1.90
2022-10-17T08:52:46.992Z,1.88
2022-10-17T08:55:29.378Z,1.83
2022-10-17T08:57:56.440Z,1.63
2022-10-17T09:00:25.097Z,0.85
2022-10-17T09:03:03.874Z,1.05
2022-10-17T09:05:53.970Z,2.88
2022-10-17T09:09:20.367Z,2.55
2022-10-17T09:11:54.422Z,2.20
2022-10-17T09:14:40.174Z,1.20
2022-10-17T09:17:53.391Z,1.35
2022-10-17T09:20:32.328Z,1.10
2022-10-17T09:23:16.558Z,2.28
2022-10-17T09:25:50.719Z,2.03
2022-10-17T09:28:32.549Z,1.80
2022-10-17T09:31:07.284Z,1.70
2022-10-17T09:33:59.706Z,1.00
2022-10-17T09:36:32.584Z,1.17
2022-10-17T09:39:15.172Z,1.60
2022-10-17T09:41:57.992Z,2.35
2022-10-17T09:44:39.487Z,1.58
2022-10-17T09:47:43.856Z,2.10
2022-10-17T09:50:31.641Z,1.30
2022-10-17T09:53:14.818Z,1.60
2022-10-17T09:55:51.397Z,1.33
2022-10-17T09:58:20.473Z,0.98
2022-10-17T10:00:49.146Z,1.53
2022-10-17T10:03:22.419Z,2.20
2022-10-17T10:06:06.654Z,2.55
2022-10-17T10:08:49.571Z,0.98
2022-10-17T10:11:18.116Z,1.15
2022-10-17T10:13:48.326Z,2.45
2022-10-17T10:16:30.965Z,2.22
2022-10-17T10:18:58.561Z,1.77
2022-10-17T10:21:27.900Z,3.03
2022-10-17T10:24:10.127Z,2.10
2022-10-17T10:26:47.601Z,0.73
2022-10-17T10:29:53.002Z,1.55
2022-10-17T10:32:33.385Z,1.70
2022-10-17T10:35:35.685Z,1.17
2022-10-17T10:38:11.391Z,1.50
2022-10-17T10:41:01.521Z,0.95
2022-10-17T10:43:47.443Z,1.45
2022-10-17T10:46:28.150Z,0.83
2022-10-17T10:49:01.602Z,2.47
2022-10-17T10:51:48.953Z,2.50
2022-10-17T10:54:26.558Z,2.30
2022-10-17T10:56:59.750Z,2.10
2022-10-17T11:00:05.152Z,2.15
2022-10-17T11:03:22.476Z,3.47
2022-10-17T11:06:17.038Z,2.73
2022-10-17T11:09:27.888Z,2.33
2022-10-17T11:12:17.054Z,2.67
2022-10-17T11:15:08.785Z,1.57
2022-10-17T11:18:11.872Z,2.00
2022-10-17T11:21:03.969Z,1.80
2022-10-17T11:23:43.033Z,3.58
2022-10-17T11:26:39.850Z,3.05
2022-10-17T11:29:08.985Z,1.08
2022-10-17T11:31:43.274Z,1.33
2022-10-17T11:34:31.165Z,2.05
2022-10-17T11:37:37.312Z,1.58
2022-10-17T11:40:25.503Z,2.63
2022-10-17T11:42:59.973Z,3.00
2022-10-17T11:45:31.241Z,1.33
2022-10-17T11:48:17.569Z,1.23
2022-10-17T11:54:22.112Z,1.75
2022-10-17T11:57:21.008Z,1.40
2022-10-17T12:00:23.683Z,1.85
2022-10-17T12:03:18.143Z,2.10
2022-10-17T12:06:05.966Z,2.10
2022-10-17T12:09:16.276Z,1.20
2022-10-17T12:11:57.323Z,1.40
2022-10-17T12:14:46.889Z,2.08
2022-10-17T12:17:36.934Z,1.75
2022-10-17T12:20:24.902Z,2.10
2022-10-17T12:22:55.602Z,1.45
2022-10-17T12:25:33.842Z,1.70
2022-10-17T12:28:44.165Z,2.67
2022-10-17T12:31:32.678Z,3.20
2022-10-17T12:34:04.000Z,2.70
2022-10-17T12:36:30.936Z,3.38
2022-10-17T12:39:03.968Z,4.00
2022-10-17T12:41:40.285Z,3.30
2022-10-17T12:44:13.186Z,0.53
2022-10-17T12:46:51.305Z,1.10
2022-10-17T12:49:38.948Z,1.02
2022-10-17T12:52:32.817Z,2.17
2022-10-17T12:55:12.612Z,2.50
2022-10-17T12:58:13.779Z,3.67
2022-10-17T13:01:23.116Z,3.27
2022-10-17T13:03:48.545Z,3.17
2022-10-17T13:06:28.730Z,1.63
2022-10-17T13:09:07.536Z,1.58
2022-10-17T13:11:37.908Z,3.47
2022-10-17T13:14:14.697Z,2.30
2022-10-17T13:17:03.114Z,3.28
2022-10-17T13:19:43.475Z,2.65
2022-10-17T13:22:19.565Z,3.87
2022-10-17T13:24:48.152Z,5.53
2022-10-17T13:27:30.986Z,1.90
2022-10-17T13:30:03.168Z,3.63
2022-10-17T13:32:39.792Z,2.90
2022-10-17T13:35:27.854Z,3.00
2022-10-17T13:38:09.718Z,2.50
2022-10-17T13:40:50.074Z,3.70
2022-10-17T13:43:24.355Z,2.72
2022-10-17T13:46:25.531Z,4.30
2022-10-17T13:48:53.384Z,2.40
2022-10-17T13:51:20.461Z,2.92
2022-10-17T13:53:47.498Z,3.17
2022-10-17T13:56:29.323Z,2.72
2022-10-17T13:59:03.535Z,3.33
2022-10-17T14:01:31.267Z,1.42
2022-10-17T14:04:20.233Z,2.05
2022-10-17T14:06:49.798Z,1.58
2022-10-17T14:09:28.888Z,2.55
2022-10-17T14:12:12.860Z,0.80
2022-10-17T14:15:08.689Z,1.70
2022-10-17T14:17:34.113Z,2.08
2022-10-17T14:20:34.006Z,0.95
2022-10-17T14:23:17.641Z,1.00
2022-10-17T14:25:41.226Z,0.43
2022-10-17T14:28:11.776Z,0.80
2022-10-17T14:30:56.352Z,0.60
2022-10-17T14:33:29.880Z,1.75
2022-10-17T14:36:00.145Z,1.30
2022-10-17T14:38:29.411Z,1.02
2022-10-17T14:41:41.335Z,1.00
2022-10-17T14:44:07.457Z,1.40
2022-10-17T14:46:38.950Z,0.60
2022-10-17T14:49:19.432Z,1.00
2022-10-17T14:52:18.858Z,1.17
2022-10-17T14:54:50.989Z,0.63
2022-10-17T14:57:48.600Z,0.98
2022-10-17T15:00:21.172Z,1.80
2022-10-17T15:02:49.584Z,8.07
2022-10-17T15:05:17.374Z,5.75
2022-10-17T15:07:44.454Z,8.30
2022-10-17T15:10:32.752Z,5.72
2022-10-17T15:13:26.146Z,5.47
2022-10-17T15:15:52.016Z,6.47
2022-10-17T15:18:19.393Z,6.60
2022-10-17T15:20:46.358Z,6.38
2022-10-17T15:23:13.375Z,5.75
2022-10-17T15:25:40.566Z,6.20
2022-10-17T15:28:08.051Z,6.20
2022-10-17T15:30:36.664Z,5.18
2022-10-17T15:33:04.463Z,5.88
2022-10-17T15:35:31.583Z,6.53
2022-10-17T15:37:58.640Z,7.97
2022-10-17T15:40:29.223Z,5.25
2022-10-17T15:42:56.810Z,6.75
2022-10-17T15:45:24.255Z,6.20
2022-10-17T15:48:03.537Z,6.43
2022-10-17T15:50:30.661Z,6.97
2022-10-17T15:53:00.671Z,5.73
2022-10-17T15:55:27.940Z,6.85
2022-10-17T15:57:55.062Z,5.57
2022-10-17T16:00:24.881Z,5.22
2022-10-17T16:02:52.030Z,5.60
2022-10-17T16:05:25.797Z,4.73
2022-10-17T16:07:55.422Z,5.82
2022-10-17T16:10:23.618Z,4.87
2022-10-17T16:12:50.866Z,6.10
2022-10-17T16:15:23.090Z,7.43
2022-10-17T16:17:55.036Z,6.10
2022-10-17T16:20:23.690Z,5.80
2022-10-17T16:22:52.104Z,5.28
2022-10-17T16:25:22.140Z,5.35
2022-10-17T16:27:52.041Z,7.13
2022-10-17T16:32:54.030Z,7.10
2022-10-17T16:35:33.090Z,5.25
2022-10-17T16:38:06.944Z,7.80
2022-10-17T16:40:34.594Z,5.53
2022-10-17T16:43:01.566Z,5.80
2022-10-17T16:45:28.828Z,5.60
2022-10-17T16:47:58.904Z,7.68
2022-10-17T16:50:26.086Z,7.03
2022-10-17T16:52:53.200Z,5.97
2022-10-17T16:55:20.538Z,5.38
2022-10-17T16:57:49.079Z,6.30
2022-10-17T17:00:17.933Z,7.37
2022-10-17T17:02:47.714Z,7.18
2022-10-17T17:05:17.786Z,4.70
2022-10-17T17:07:47.713Z,7.55
2022-10-17T17:10:14.797Z,6.40
2022-10-17T17:12:42.337Z,6.17
2022-10-17T17:15:09.483Z,6.07
2022-10-17T17:17:50.293Z,5.65
2022-10-17T17:20:18.738Z,6.20
2022-10-17T17:22:45.795Z,7.85
2022-10-17T17:25:12.852Z,8.70
2022-10-17T17:27:42.650Z,8.60
2022-10-17T17:30:10.402Z,8.13
2022-10-17T17:32:39.116Z,7.63
2022-10-17T17:35:06.432Z,8.48
2022-10-17T17:37:33.606Z,7.43
2022-10-17T17:40:00.742Z,9.52
2022-10-17T17:42:27.779Z,9.20
2022-10-17T17:44:54.831Z,10.70
2022-10-17T17:47:21.953Z,8.60
2022-10-17T17:49:50.955Z,7.93
2022-10-17T17:52:17.992Z,8.43
2022-10-17T17:54:46.895Z,8.95
2022-10-17T17:57:14.035Z,7.75
2022-10-17T17:59:44.185Z,8.32
2022-10-17T18:02:15.706Z,9.10
2022-10-17T18:04:43.919Z,7.72
2022-10-17T18:07:11.058Z,7.97
2022-10-17T18:09:38.267Z,9.77
2022-10-17T18:12:05.642Z,9.15
2022-10-17T18:14:33.084Z,10.30
2022-10-17T18:17:00.145Z,8.20
2022-10-17T18:19:28.384Z,9.65
2022-10-17T18:21:55.777Z,9.75
2022-10-17T18:24:22.980Z,8.70
2022-10-17T18:26:51.104Z,9.00
2022-10-17T18:29:19.679Z,9.50
2022-10-17T18:31:46.902Z,8.27
2022-10-17T18:34:13.868Z,8.38
2022-10-17T18:36:40.939Z,9.45
2022-10-17T18:39:08.211Z,9.32
2022-10-17T18:41:35.500Z,6.40
2022-10-17T18:44:05.770Z,8.30
2022-10-17T18:46:40.510Z,10.20
2022-10-17T18:49:15.423Z,8.45
2022-10-17T18:51:43.095Z,10.90
2022-10-17T18:54:21.590Z,9.38
2022-10-17T18:56:54.657Z,7.75
2022-10-17T18:59:22.236Z,9.73
2022-10-17T19:01:49.567Z,9.27
2022-10-17T19:04:17.191Z,7.72
2022-10-17T19:06:44.751Z,9.77
2022-10-17T19:09:15.649Z,9.15
2022-10-17T19:11:43.728Z,11.70
2022-10-17T19:14:13.495Z,6.63
2022-10-17T19:16:51.722Z,8.45
2022-10-17T19:19:25.542Z,7.57
2022-10-17T19:21:53.267Z,9.98
2022-10-17T19:24:25.082Z,8.48
2022-10-17T19:26:55.013Z,8.75
2022-10-17T19:29:26.311Z,9.13
2022-10-17T19:34:27.840Z,8.32
2022-10-17T19:36:55.968Z,9.55
2022-10-17T19:39:26.747Z,9.20
2022-10-17T19:41:54.171Z,7.93
2022-10-17T19:44:21.489Z,8.63
2022-10-17T19:46:49.424Z,9.05
2022-10-17T19:49:16.918Z,7.63
2022-10-17T19:51:44.915Z,7.15
2022-10-17T19:54:12.855Z,6.97
2022-10-17T19:56:41.386Z,8.48
2022-10-17T19:59:11.877Z,8.20
2022-10-17T20:01:40.066Z,7.38
2022-10-17T20:04:09.399Z,10.95
2022-10-17T20:06:37.338Z,6.53
2022-10-17T20:09:06.021Z,8.07
2022-10-17T20:11:33.348Z,7.20
2022-10-17T20:14:01.934Z,7.15
2022-10-17T20:16:32.625Z,6.90
2022-10-17T20:19:12.496Z,7.80
2022-10-17T20:21:40.071Z,7.80
2022-10-17T20:24:11.195Z,7.78
2022-10-17T20:26:39.454Z,7.37
2022-10-17T20:29:16.187Z,8.13
2022-10-17T20:31:45.675Z,9.35
2022-10-17T20:34:15.474Z,7.85
2022-10-17T20:36:43.030Z,9.02
2022-10-17T20:39:13.458Z,8.30
2022-10-17T20:41:41.425Z,6.97
2022-10-17T20:44:09.010Z,7.60
2022-10-17T20:46:38.480Z,8.30
2022-10-17T20:49:13.280Z,8.70
2022-10-17T20:51:40.343Z,9.05
2022-10-17T20:54:10.551Z,10.07
2022-10-17T20:56:38.593Z,9.18
2022-10-17T20:59:12.327Z,7.57
2022-10-17T21:01:39.731Z,9.07
2022-10-17T21:04:33.163Z,6.43
2022-10-17T21:06:53.966Z,8.02
2022-10-17T21:09:21.997Z,7.68
2022-10-17T21:11:51.526Z,7.85
2022-10-17T21:14:19.011Z,7.20
2022-10-17T21:16:46.221Z,7.50
2022-10-17T21:19:14.301Z,5.95
2022-10-17T21:21:45.387Z,6.97
2022-10-17T21:24:17.392Z,9.07
2022-10-17T21:26:46.558Z,6.82
2022-10-17T21:29:14.445Z,7.63
2022-10-17T21:31:43.994Z,6.33
2022-10-17T21:34:15.032Z,8.07
2022-10-17T21:36:42.518Z,6.05
2022-10-17T21:39:12.329Z,7.75
2022-10-17T21:41:39.925Z,6.57
2022-10-17T21:44:16.738Z,7.88
2022-10-17T21:46:44.727Z,7.63
2022-10-17T21:49:14.530Z,7.55
2022-10-17T21:51:42.370Z,7.63
2022-10-17T21:54:09.440Z,7.10
2022-10-17T21:56:36.754Z,8.48
2022-10-17T21:59:05.321Z,7.63
2022-10-17T22:01:37.653Z,7.70
2022-10-17T22:04:08.524Z,6.55
2022-10-17T22:06:40.855Z,8.87
2022-10-17T22:09:20.264Z,7.13
2022-10-17T22:11:51.613Z,6.05
2022-10-17T22:14:21.345Z,8.57
2022-10-17T22:16:49.700Z,7.43
2022-10-17T22:19:23.542Z,8.25
2022-10-17T22:21:50.999Z,8.27
2022-10-17T22:26:52.161Z,8.68
2022-10-17T22:29:19.627Z,6.53
2022-10-17T22:31:47.170Z,6.60
2022-10-17T22:34:16.574Z,7.45
2022-10-17T22:36:43.974Z,7.07
2022-10-17T22:39:11.135Z,7.33
2022-10-17T22:41:38.216Z,7.13
2022-10-17T22:44:05.728Z,7.70
2022-10-17T22:46:32.842Z,7.60
2022-10-17T22:48:59.926Z,8.43
2022-10-17T22:51:27.498Z,7.45
2022-10-17T22:53:54.923Z,8.77
2022-10-17T22:56:22.861Z,6.95
2022-10-17T22:58:50.615Z,8.10
2022-10-17T23:01:21.104Z,7.53
2022-10-17T23:03:48.714Z,9.03
2022-10-17T23:06:16.046Z,8.35
2022-10-17T23:08:43.581Z,7.35
2022-10-17T23:11:12.645Z,7.43
2022-10-17T23:13:40.918Z,8.13
2022-10-17T23:16:08.626Z,8.30
2022-10-17T23:18:37.593Z,6.60
2022-10-17T23:21:05.126Z,7.40
2022-10-17T23:23:32.222Z,7.13
2022-10-17T23:26:14.318Z,8.88
2022-10-17T23:28:42.758Z,9.80
2022-10-17T23:31:19.758Z,7.03
2022-10-17T23:33:48.957Z,7.47
2022-10-17T23:36:19.000Z,7.95
2022-10-17T23:38:47.589Z,7.00
2022-10-17T23:41:15.056Z,7.55
2022-10-17T23:43:42.887Z,7.18
2022-10-17T23:46:10.467Z,5.53
2022-10-17T23:48:38.705Z,8.60
2022-10-17T23:51:07.516Z,6.75
2022-10-17T23:53:35.529Z,7.03
2022-10-17T23:56:02.608Z,6.95
2022-10-17T23:58:29.708Z,5.65
